createdAt,value
2017-06-19T00:00:40.136Z,1008.31
2017-06-19T00:01:20.674Z,1008.31
2017-06-19T00:02:01.127Z,1008.29
2017-06-19T00:02:41.661Z,1008.3
2017-06-19T00:03:22.173Z,1008.22
2017-06-19T00:04:02.689Z,1008.27
2017-06-19T00:04:43.149Z,1008.28
2017-06-19T00:05:23.649Z,1008.23
2017-06-19T00:06:04.169Z,1008.27
2017-06-19T00:06:44.631Z,1008.19
2017-06-19T00:07:25.272Z,1008.22
2017-06-19T00:08:05.694Z,1008.16
2017-06-19T00:08:46.193Z,1008.19
2017-06-19T00:09:26.714Z,1008.21
2017-06-19T00:10:07.202Z,1008.21
2017-06-19T00:10:47.726Z,1008.16
2017-06-19T00:11:28.252Z,1008.15
2017-06-19T00:12:08.792Z,1008.12
2017-06-19T00:12:49.309Z,1008.18
2017-06-19T00:13:29.810Z,1008.11
2017-06-19T00:14:10.268Z,1008.14
2017-06-19T00:14:50.808Z,1008.17
2017-06-19T00:15:31.321Z,1008.11
2017-06-19T00:16:11.831Z,1008.16
2017-06-19T00:16:52.347Z,1008.13
2017-06-19T00:17:32.840Z,1008.13
2017-06-19T00:18:13.336Z,1008.09
2017-06-19T00:18:53.832Z,1008.11
2017-06-19T00:19:34.337Z,1008.07
2017-06-19T00:20:14.781Z,1008.09
2017-06-19T00:20:55.383Z,1008.12
2017-06-19T00:21:35.994Z,1008.09
2017-06-19T00:22:16.390Z,1008.06
2017-06-19T00:22:56.883Z,1008.05
2017-06-19T00:23:37.356Z,1008.08
2017-06-19T00:24:17.868Z,1008.09
2017-06-19T00:24:58.381Z,1008.08
2017-06-19T00:25:39.021Z,1008.12
2017-06-19T00:26:19.425Z,1008.12
2017-06-19T00:26:59.992Z,1008.11
2017-06-19T00:27:40.486Z,1008.1
2017-06-19T00:28:20.982Z,1008.11
2017-06-19T00:29:01.594Z,1008.12
2017-06-19T00:29:42.131Z,1008.17
2017-06-19T00:30:22.634Z,1008.12
2017-06-19T00:31:03.122Z,1008.16
2017-06-19T00:31:43.663Z,1008.13
2017-06-19T00:32:24.149Z,1008.15
2017-06-19T00:33:04.688Z,1008.1
2017-06-19T00:33:45.183Z,1008.05
2017-06-19T00:34:25.690Z,1008.06
2017-06-19T00:35:06.197Z,1008.07
2017-06-19T00:35:46.935Z,1008.06
2017-06-19T00:36:27.385Z,1008.11
2017-06-19T00:37:07.892Z,1008.08
2017-06-19T00:37:48.411Z,1008.06
2017-06-19T00:38:28.885Z,1008.07
2017-06-19T00:39:09.388Z,1008.09
2017-06-19T00:39:49.847Z,1008.05
2017-06-19T00:40:30.360Z,1008.09
2017-06-19T00:41:10.816Z,1008.07
2017-06-19T00:41:51.338Z,1008.08
2017-06-19T00:42:31.885Z,1008.12
2017-06-19T00:43:12.487Z,1008.1
2017-06-19T00:43:53.035Z,1008.11
2017-06-19T00:44:33.498Z,1008.12
2017-06-19T00:45:13.976Z,1008.1
2017-06-19T00:45:54.467Z,1008.13
2017-06-19T00:46:35.010Z,1008.13
2017-06-19T00:47:15.568Z,1008.17
2017-06-19T00:47:56.097Z,1008.15
2017-06-19T00:48:36.585Z,1008.16
2017-06-19T00:49:17.196Z,1008.13
2017-06-19T00:49:57.621Z,1008.13
2017-06-19T00:50:38.082Z,1008.12
2017-06-19T00:51:18.559Z,1008.14
2017-06-19T00:51:59.086Z,1008.15
2017-06-19T00:52:39.545Z,1008.14
2017-06-19T00:53:20.066Z,1008.14
2017-06-19T00:54:00.568Z,1008.17
2017-06-19T00:54:41.059Z,1008.16
2017-06-19T00:55:21.508Z,1008.16
2017-06-19T00:56:02.018Z,1008.16
2017-06-19T00:56:42.491Z,1008.12
2017-06-19T00:57:23.045Z,1008.17
2017-06-19T00:58:03.530Z,1008.14
2017-06-19T00:58:44.036Z,1008.13
2017-06-19T00:59:24.519Z,1008.11
2017-06-19T01:00:04.982Z,1008.12
2017-06-19T01:00:45.479Z,1008.12
2017-06-19T01:01:25.978Z,1008.11
2017-06-19T01:02:06.489Z,1008.11
2017-06-19T01:02:47.022Z,1008.13
2017-06-19T01:03:27.479Z,1008.09
2017-06-19T01:04:08.130Z,1008.06
2017-06-19T01:04:48.639Z,1008.08
2017-06-19T01:05:29.110Z,1008.13
2017-06-19T01:06:09.622Z,1008.16
2017-06-19T01:06:50.126Z,1008.07
2017-06-19T01:07:30.610Z,1008.1
2017-06-19T01:08:11.109Z,1008.11
2017-06-19T01:08:51.627Z,1008.15
2017-06-19T01:09:32.114Z,1008.15
2017-06-19T01:10:12.606Z,1008.1
2017-06-19T01:10:53.274Z,1008.08
2017-06-19T01:11:33.790Z,1008.09
2017-06-19T01:12:14.235Z,1008.12
2017-06-19T01:12:54.784Z,1008.17
2017-06-19T01:13:35.288Z,1008.14
2017-06-19T01:14:15.762Z,1008.15
2017-06-19T01:14:56.239Z,1008.11
2017-06-19T01:15:36.788Z,1008.1
2017-06-19T01:16:17.238Z,1008.11
2017-06-19T01:16:57.715Z,1008.12
2017-06-19T01:17:38.235Z,1008.06
2017-06-19T01:18:18.963Z,1008.09
2017-06-19T01:18:59.732Z,1008
2017-06-19T01:19:40.097Z,1008
2017-06-19T01:20:20.613Z,1008
2017-06-19T01:21:01.091Z,1007.98
2017-06-19T01:21:41.576Z,1007.99
2017-06-19T01:22:22.070Z,1007.96
2017-06-19T01:23:02.599Z,1008.01
2017-06-19T01:23:43.071Z,1007.96
2017-06-19T01:24:23.683Z,1007.97
2017-06-19T01:25:04.271Z,1007.97
2017-06-19T01:25:44.779Z,1007.97
2017-06-19T01:26:25.279Z,1007.93
2017-06-19T01:27:05.867Z,1007.97
2017-06-19T01:27:46.267Z,1007.96
2017-06-19T01:28:26.775Z,1007.91
2017-06-19T01:29:07.233Z,1007.93
2017-06-19T01:29:47.809Z,1007.92
2017-06-19T01:30:28.253Z,1007.9
2017-06-19T01:31:08.768Z,1007.87
2017-06-19T01:31:49.478Z,1007.89
2017-06-19T01:32:29.976Z,1007.85
2017-06-19T01:33:10.476Z,1007.82
2017-06-19T01:33:50.981Z,1007.88
2017-06-19T01:34:31.487Z,1007.84
2017-06-19T01:35:11.962Z,1007.87
2017-06-19T01:35:52.431Z,1007.82
2017-06-19T01:36:33.117Z,1007.84
2017-06-19T01:37:13.618Z,1007.83
2017-06-19T01:37:54.105Z,1007.86
2017-06-19T01:38:34.815Z,1007.84
2017-06-19T01:39:15.325Z,1007.83
2017-06-19T01:39:55.804Z,1007.82
2017-06-19T01:40:36.317Z,1007.82
2017-06-19T01:41:16.801Z,1007.8
2017-06-19T01:41:57.347Z,1007.8
2017-06-19T01:42:37.876Z,1007.83
2017-06-19T01:43:18.360Z,1007.79
2017-06-19T01:43:58.867Z,1007.77
2017-06-19T01:44:39.412Z,1007.75
2017-06-19T01:45:19.946Z,1007.8
2017-06-19T01:46:00.464Z,1007.77
2017-06-19T01:46:41.039Z,1007.83
2017-06-19T01:47:21.562Z,1007.79
2017-06-19T01:48:02.100Z,1007.75
2017-06-19T01:48:42.576Z,1007.75
2017-06-19T01:49:23.101Z,1007.76
2017-06-19T01:50:03.559Z,1007.76
2017-06-19T01:50:44.131Z,1007.7
2017-06-19T01:51:24.609Z,1007.74
2017-06-19T01:52:05.167Z,1007.72
2017-06-19T01:52:45.629Z,1007.72
2017-06-19T01:53:26.167Z,1007.71
2017-06-19T01:54:06.573Z,1007.72
2017-06-19T01:54:47.106Z,1007.73
2017-06-19T01:55:27.615Z,1007.73
2017-06-19T01:56:08.114Z,1007.74
2017-06-19T01:56:48.567Z,1007.72
2017-06-19T01:57:29.102Z,1007.75
2017-06-19T01:58:09.583Z,1007.76
2017-06-19T01:58:50.098Z,1007.74
2017-06-19T01:59:30.676Z,1007.69
2017-06-19T02:00:11.180Z,1007.74
2017-06-19T02:00:51.721Z,1007.68
2017-06-19T02:01:32.159Z,1007.71
2017-06-19T02:02:12.698Z,1007.67
2017-06-19T02:02:53.175Z,1007.7
2017-06-19T02:03:33.795Z,1007.69
2017-06-19T02:04:14.222Z,1007.67
2017-06-19T02:04:54.712Z,1007.67
2017-06-19T02:05:35.241Z,1007.61
2017-06-19T02:06:15.990Z,1007.63
2017-06-19T02:06:56.489Z,1007.64
2017-06-19T02:07:36.988Z,1007.65
2017-06-19T02:08:17.466Z,1007.61
2017-06-19T02:08:57.939Z,1007.6
2017-06-19T02:09:38.429Z,1007.61
2017-06-19T02:10:18.967Z,1007.59
2017-06-19T02:10:59.413Z,1007.62
2017-06-19T02:11:39.931Z,1007.58
2017-06-19T02:12:20.399Z,1007.59
2017-06-19T02:13:00.995Z,1007.6
2017-06-19T02:13:41.426Z,1007.63
2017-06-19T02:14:21.925Z,1007.64
2017-06-19T02:15:02.429Z,1007.62
2017-06-19T02:15:42.923Z,1007.72
2017-06-19T02:16:23.375Z,1007.7
2017-06-19T02:17:03.920Z,1007.76
2017-06-19T02:17:44.413Z,1007.71
2017-06-19T02:18:24.876Z,1007.71
2017-06-19T02:19:05.406Z,1007.77
2017-06-19T02:19:45.891Z,1007.72
2017-06-19T02:20:26.355Z,1007.76
2017-06-19T02:21:06.934Z,1007.75
2017-06-19T02:21:47.464Z,1007.78
2017-06-19T02:22:28.061Z,1007.75
2017-06-19T02:23:08.605Z,1007.74
2017-06-19T02:23:49.113Z,1007.78
2017-06-19T02:24:29.569Z,1007.72
2017-06-19T02:25:10.209Z,1007.75
2017-06-19T02:25:50.716Z,1007.74
2017-06-19T02:26:31.216Z,1007.76
2017-06-19T02:27:11.866Z,1007.72
2017-06-19T02:27:52.369Z,1007.71
2017-06-19T02:28:32.861Z,1007.75
2017-06-19T02:29:13.372Z,1007.77
2017-06-19T02:29:53.883Z,1007.71
2017-06-19T02:30:34.382Z,1007.73
2017-06-19T02:31:14.869Z,1007.75
2017-06-19T02:31:55.383Z,1007.78
2017-06-19T02:32:35.872Z,1007.81
2017-06-19T02:33:16.379Z,1007.74
2017-06-19T02:33:56.835Z,1007.73
2017-06-19T02:34:37.642Z,1007.76
2017-06-19T02:35:18.093Z,1007.79
2017-06-19T02:35:58.629Z,1007.76
2017-06-19T02:36:39.107Z,1007.76
2017-06-19T02:37:19.596Z,1007.77
2017-06-19T02:38:00.087Z,1007.79
2017-06-19T02:38:40.616Z,1007.76
2017-06-19T02:39:21.083Z,1007.78
2017-06-19T02:40:01.804Z,1007.79
2017-06-19T02:40:42.444Z,1007.76
2017-06-19T02:41:22.948Z,1007.81
2017-06-19T02:42:03.480Z,1007.76
2017-06-19T02:42:43.982Z,1007.78
2017-06-19T02:43:24.569Z,1007.81
2017-06-19T02:44:05.070Z,1007.76
2017-06-19T02:44:46.491Z,1007.76
2017-06-19T02:45:27.116Z,1007.77
2017-06-19T02:46:07.945Z,1007.74
2017-06-19T02:46:48.473Z,1007.74
2017-06-19T02:47:28.906Z,1007.73
2017-06-19T02:48:09.603Z,1007.74
2017-06-19T02:48:50.144Z,1007.76
2017-06-19T02:49:30.759Z,1007.8
2017-06-19T02:50:11.256Z,1007.78
2017-06-19T02:50:52.496Z,1007.79
2017-06-19T02:51:33.009Z,1007.77
2017-06-19T02:52:13.495Z,1007.79
2017-06-19T02:52:53.972Z,1007.82
2017-06-19T02:53:34.509Z,1007.83
2017-06-19T02:54:15.692Z,1007.8
2017-06-19T02:54:56.152Z,1007.78
2017-06-19T02:57:25.104Z,1007.83
2017-06-19T02:58:05.493Z,1007.85
2017-06-19T02:58:45.983Z,1007.84
2017-06-19T02:59:26.480Z,1007.87
2017-06-19T03:00:06.984Z,1007.87
2017-06-19T03:00:47.452Z,1007.92
2017-06-19T03:01:27.961Z,1007.93
2017-06-19T03:02:08.520Z,1007.89
2017-06-19T03:02:49.039Z,1007.92
2017-06-19T03:03:29.550Z,1007.94
2017-06-19T03:04:10.088Z,1007.91
2017-06-19T03:04:50.594Z,1007.88
2017-06-19T03:05:31.086Z,1007.93
2017-06-19T03:06:11.599Z,1007.89
2017-06-19T03:06:52.101Z,1007.9
2017-06-19T03:07:32.622Z,1007.9
2017-06-19T03:08:13.076Z,1007.95
2017-06-19T03:08:53.590Z,1007.92
2017-06-19T03:09:34.065Z,1007.92
2017-06-19T03:10:14.596Z,1007.91
2017-06-19T03:10:55.164Z,1007.94
2017-06-19T03:11:35.702Z,1007.89
2017-06-19T03:12:16.193Z,1007.93
2017-06-19T03:12:56.680Z,1007.95
2017-06-19T03:13:37.161Z,1007.9
2017-06-19T03:14:17.700Z,1007.93
2017-06-19T03:14:58.196Z,1007.92
2017-06-19T03:15:38.705Z,1007.91
2017-06-19T03:16:19.402Z,1007.9
2017-06-19T03:16:59.726Z,1007.9
2017-06-19T03:17:40.260Z,1007.93
2017-06-19T03:18:20.910Z,1007.89
2017-06-19T03:19:01.402Z,1007.92
2017-06-19T03:19:41.877Z,1007.88
2017-06-19T03:20:22.408Z,1007.89
2017-06-19T03:21:02.975Z,1007.84
2017-06-19T03:21:43.470Z,1007.87
2017-06-19T03:22:24.024Z,1007.87
2017-06-19T03:23:04.479Z,1007.86
2017-06-19T03:23:44.990Z,1007.82
2017-06-19T03:24:25.453Z,1007.87
2017-06-19T03:25:05.945Z,1007.83
2017-06-19T03:25:46.408Z,1007.82
2017-06-19T03:26:26.940Z,1007.82
2017-06-19T03:28:21.547Z,1007.81
2017-06-19T03:29:02.178Z,1007.83
2017-06-19T03:29:42.544Z,1007.83
2017-06-19T03:30:23.043Z,1007.83
2017-06-19T03:31:03.522Z,1007.81
2017-06-19T03:31:44.037Z,1007.84
2017-06-19T03:32:24.901Z,1007.81
2017-06-19T03:33:05.336Z,1007.79
2017-06-19T03:33:45.874Z,1007.8
2017-06-19T03:34:26.308Z,1007.8
2017-06-19T03:35:06.939Z,1007.81
2017-06-19T03:35:47.358Z,1007.8
2017-06-19T03:36:27.897Z,1007.79
2017-06-19T03:37:08.778Z,1007.83
2017-06-19T03:37:49.288Z,1007.81
2017-06-19T03:38:29.787Z,1007.83
2017-06-19T03:39:10.446Z,1007.82
2017-06-19T03:39:50.919Z,1007.84
2017-06-19T03:40:31.426Z,1007.84
2017-06-19T03:41:11.960Z,1007.86
2017-06-19T03:41:52.449Z,1007.85
2017-06-19T03:42:32.996Z,1007.85
2017-06-19T03:43:13.515Z,1007.85
2017-06-19T03:43:53.950Z,1007.84
2017-06-19T03:44:34.449Z,1007.88
2017-06-19T03:45:14.981Z,1007.89
2017-06-19T03:45:55.649Z,1007.88
2017-06-19T03:46:36.092Z,1007.9
2017-06-19T03:47:16.554Z,1007.9
2017-06-19T03:47:57.075Z,1007.9
2017-06-19T03:48:37.617Z,1007.89
2017-06-19T03:49:18.122Z,1007.92
2017-06-19T03:49:58.648Z,1007.92
2017-06-19T03:50:39.119Z,1007.94
2017-06-19T03:51:19.643Z,1007.9
2017-06-19T03:52:00.086Z,1007.97
2017-06-19T03:52:40.642Z,1007.94
2017-06-19T03:53:21.121Z,1008.03
2017-06-19T03:54:01.566Z,1008.03
2017-06-19T03:54:42.050Z,1008
2017-06-19T03:55:22.556Z,1008.01
2017-06-19T03:56:03.045Z,1008.05
2017-06-19T03:56:43.496Z,1008.03
2017-06-19T03:57:24.020Z,1008.02
2017-06-19T03:58:04.519Z,1008.04
2017-06-19T03:58:45.082Z,1008.02
2017-06-19T03:59:25.560Z,1007.99
2017-06-19T04:00:06.097Z,1008
2017-06-19T04:00:46.601Z,1007.99
2017-06-19T04:01:27.098Z,1007.95
2017-06-19T04:02:07.608Z,1007.98
2017-06-19T04:02:48.061Z,1007.98
2017-06-19T04:03:28.564Z,1007.96
2017-06-19T04:04:09.059Z,1007.98
2017-06-19T04:04:49.610Z,1007.99
2017-06-19T04:05:30.105Z,1007.98
2017-06-19T04:06:10.606Z,1008.01
2017-06-19T04:06:51.147Z,1008.03
2017-06-19T04:07:31.609Z,1008.07
2017-06-19T04:08:12.121Z,1008.06
2017-06-19T04:08:52.612Z,1008.03
2017-06-19T04:09:33.155Z,1008.02
2017-06-19T04:10:13.632Z,1008.06
2017-06-19T04:10:54.112Z,1008.03
2017-06-19T04:11:34.613Z,1008.05
2017-06-19T04:12:15.140Z,1008.03
2017-06-19T04:12:55.637Z,1008.03
2017-06-19T04:13:36.105Z,1008.05
2017-06-19T04:14:16.731Z,1008.06
2017-06-19T04:14:57.226Z,1008.04
2017-06-19T04:15:37.713Z,1008.04
2017-06-19T04:16:18.239Z,1007.99
2017-06-19T04:16:58.739Z,1008
2017-06-19T04:17:39.209Z,1008.03
2017-06-19T04:18:19.703Z,1008.02
2017-06-19T04:19:00.206Z,1007.99
2017-06-19T04:19:40.720Z,1007.98
2017-06-19T04:20:21.158Z,1007.98
2017-06-19T04:21:01.641Z,1008
2017-06-19T04:21:42.176Z,1008
2017-06-19T04:22:22.655Z,1008.03
2017-06-19T04:23:03.133Z,1008
2017-06-19T04:23:43.658Z,1008.07
2017-06-19T04:24:24.091Z,1008.04
2017-06-19T04:25:04.598Z,1008.04
2017-06-19T04:25:45.117Z,1007.99
2017-06-19T04:26:25.604Z,1007.99
2017-06-19T04:27:06.155Z,1008.02
2017-06-19T04:27:46.691Z,1008.06
2017-06-19T04:28:27.207Z,1008
2017-06-19T04:29:07.698Z,1008.02
2017-06-19T04:29:48.227Z,1008.06
2017-06-19T04:30:28.914Z,1008.04
2017-06-19T04:31:09.365Z,1007.99
2017-06-19T04:31:49.933Z,1008.03
2017-06-19T04:32:30.356Z,1007.95
2017-06-19T04:33:10.945Z,1008
2017-06-19T04:33:51.405Z,1007.97
2017-06-19T04:34:31.945Z,1007.98
2017-06-19T04:35:12.411Z,1007.96
2017-06-19T04:35:53.165Z,1007.97
2017-06-19T04:36:33.675Z,1007.96
2017-06-19T04:37:14.215Z,1007.94
2017-06-19T04:37:54.783Z,1007.97
2017-06-19T04:38:35.221Z,1007.99
2017-06-19T04:39:15.749Z,1007.99
2017-06-19T04:39:56.297Z,1007.98
2017-06-19T04:40:36.747Z,1008
2017-06-19T04:41:17.219Z,1008.01
2017-06-19T04:41:57.860Z,1008.06
2017-06-19T04:42:38.245Z,1008.19
2017-06-19T04:43:19.020Z,1008.27
2017-06-19T04:43:59.671Z,1008.33
2017-06-19T04:44:40.157Z,1008.33
2017-06-19T04:45:20.771Z,1008.32
2017-06-19T04:46:01.214Z,1008.16
2017-06-19T04:46:41.715Z,1008.09
2017-06-19T04:47:22.393Z,1008.1
2017-06-19T04:48:02.934Z,1008.05
2017-06-19T04:48:43.474Z,1008.01
2017-06-19T04:49:23.975Z,1007.97
2017-06-19T04:50:04.462Z,1008.03
2017-06-19T04:50:44.953Z,1008
2017-06-19T04:52:58.357Z,1008.03
2017-06-19T04:53:38.836Z,1008.03
2017-06-19T04:54:19.474Z,1007.98
2017-06-19T04:56:33.120Z,1008.09
2017-06-19T04:57:13.767Z,1008.08
2017-06-19T04:57:54.228Z,1008.09
2017-06-19T04:58:34.772Z,1008.07
2017-06-19T04:59:15.320Z,1008.07
2017-06-19T04:59:55.783Z,1008.04
2017-06-19T05:00:36.331Z,1008
2017-06-19T05:01:16.767Z,1008.03
2017-06-19T05:01:57.283Z,1008.02
2017-06-19T05:02:37.756Z,1008.05
2017-06-19T05:03:18.293Z,1008.05
2017-06-19T05:03:58.782Z,1008.07
2017-06-19T05:04:39.327Z,1008.09
2017-06-19T05:05:19.822Z,1008.02
2017-06-19T05:06:00.390Z,1008.11
2017-06-19T05:06:40.831Z,1008.09
2017-06-19T05:07:21.327Z,1008.08
2017-06-19T05:08:01.793Z,1008.09
2017-06-19T05:08:43.797Z,1008.04
2017-06-19T05:09:24.306Z,1008.09
2017-06-19T05:10:04.821Z,1008.07
2017-06-19T05:10:45.624Z,1008.05
2017-06-19T05:11:26.213Z,1008.07
2017-06-19T05:12:06.617Z,1008.1
2017-06-19T05:12:48.970Z,1008.1
2017-06-19T05:13:29.524Z,1008.12
2017-06-19T05:14:10.036Z,1008.09
2017-06-19T05:14:50.515Z,1008.13
2017-06-19T05:15:31.004Z,1008.16
2017-06-19T05:16:11.558Z,1008.18
2017-06-19T05:16:52.029Z,1008.2
2017-06-19T05:17:32.852Z,1008.23
2017-06-19T05:18:14.410Z,1008.2
2017-06-19T05:18:55.048Z,1008.19
2017-06-19T05:19:35.530Z,1008.18
2017-06-19T05:20:16.196Z,1008.17
2017-06-19T05:20:56.725Z,1008.2
2017-06-19T05:21:37.200Z,1008.19
2017-06-19T05:22:17.722Z,1008.13
2017-06-19T05:22:58.571Z,1008.14
2017-06-19T05:23:39.405Z,1008.15
2017-06-19T05:24:21.048Z,1008.16
2017-06-19T05:25:01.657Z,1008.14
2017-06-19T05:25:42.362Z,1008.24
2017-06-19T05:26:23.026Z,1008.42
2017-06-19T05:27:04.121Z,1008.56
2017-06-19T05:27:44.462Z,1008.58
2017-06-19T05:28:25.010Z,1008.47
2017-06-19T05:29:05.483Z,1008.4
2017-06-19T05:29:45.982Z,1008.24
2017-06-19T05:30:26.453Z,1008.24
2017-06-19T05:31:07.001Z,1008.23
2017-06-19T05:31:47.466Z,1008.24
2017-06-19T05:32:27.986Z,1008.29
2017-06-19T05:33:08.495Z,1008.24
2017-06-19T05:33:48.935Z,1008.25
2017-06-19T05:34:29.467Z,1008.23
2017-06-19T05:35:09.982Z,1008.24
2017-06-19T05:35:50.427Z,1008.21
2017-06-19T05:36:30.906Z,1008.23
2017-06-19T05:37:11.421Z,1008.22
2017-06-19T05:37:51.911Z,1008.19
2017-06-19T05:38:32.458Z,1008.25
2017-06-19T05:39:12.990Z,1008.18
2017-06-19T05:39:53.438Z,1008.2
2017-06-19T05:40:33.937Z,1008.22
2017-06-19T05:41:14.945Z,1008.18
2017-06-19T05:41:55.007Z,1008.17
2017-06-19T05:42:35.501Z,1008.25
2017-06-19T05:43:16.061Z,1008.27
2017-06-19T05:43:56.606Z,1008.24
2017-06-19T05:44:37.129Z,1008.3
2017-06-19T05:45:17.888Z,1008.25
2017-06-19T05:45:58.604Z,1008.32
2017-06-19T05:46:39.097Z,1008.22
2017-06-19T05:47:20.564Z,1008.25
2017-06-19T05:48:01.104Z,1008.21
2017-06-19T05:48:41.635Z,1008.25
2017-06-19T05:49:22.135Z,1008.24
2017-06-19T05:50:02.574Z,1008.19
2017-06-19T05:50:43.206Z,1008.22
2017-06-19T05:51:23.926Z,1008.21
2017-06-19T05:52:04.444Z,1008.17
2017-06-19T05:52:45.025Z,1008.18
2017-06-19T05:53:25.751Z,1008.22
2017-06-19T05:54:06.298Z,1008.24
2017-06-19T05:54:46.810Z,1008.27
2017-06-19T05:55:28.087Z,1008.25
2017-06-19T05:56:08.576Z,1008.33
2017-06-19T05:56:49.074Z,1008.27
2017-06-19T05:57:29.602Z,1008.35
2017-06-19T05:58:10.115Z,1008.37
2017-06-19T05:58:50.610Z,1008.4
2017-06-19T05:59:31.186Z,1008.36
2017-06-19T06:00:12.138Z,1008.31
2017-06-19T06:00:52.648Z,1008.35
2017-06-19T06:01:33.170Z,1008.36
2017-06-19T06:02:13.845Z,1008.29
2017-06-19T06:02:54.326Z,1008.28
2017-06-19T06:03:34.828Z,1008.31
2017-06-19T06:04:15.337Z,1008.22
2017-06-19T06:04:55.824Z,1008.19
2017-06-19T06:05:36.378Z,1008.19
2017-06-19T06:06:16.887Z,1008.2
2017-06-19T06:06:57.376Z,1008.22
2017-06-19T06:07:37.937Z,1008.2
2017-06-19T06:08:18.478Z,1008.22
2017-06-19T06:08:58.985Z,1008.16
2017-06-19T06:09:39.481Z,1008.17
2017-06-19T06:10:19.985Z,1008.22
2017-06-19T06:11:00.478Z,1008.14
2017-06-19T06:11:40.960Z,1008.22
2017-06-19T06:12:21.445Z,1008.17
2017-06-19T06:13:01.992Z,1008.18
2017-06-19T06:15:00.143Z,1008.24
2017-06-19T06:15:40.657Z,1008.29
2017-06-19T06:16:21.200Z,1008.2
2017-06-19T06:17:01.703Z,1008.17
2017-06-19T06:17:42.244Z,1008.21
2017-06-19T06:18:22.676Z,1008.17
2017-06-19T06:19:03.198Z,1008.18
2017-06-19T06:19:43.718Z,1008.12
2017-06-19T06:20:24.225Z,1008.14
2017-06-19T06:21:04.764Z,1008.14
2017-06-19T06:21:45.261Z,1008.15
2017-06-19T06:22:25.730Z,1008.13
2017-06-19T06:23:06.233Z,1008.16
2017-06-19T06:23:46.733Z,1008.11
2017-06-19T06:24:27.219Z,1008.15
2017-06-19T06:25:07.744Z,1008.12
2017-06-19T06:25:48.264Z,1008.09
2017-06-19T06:26:28.744Z,1008.07
2017-06-19T06:27:09.232Z,1008.08
2017-06-19T06:27:49.760Z,1008.07
2017-06-19T06:28:30.231Z,1007.99
2017-06-19T06:29:10.775Z,1008.05
2017-06-19T06:29:51.288Z,1008.04
2017-06-19T06:30:31.720Z,1008.09
2017-06-19T06:31:12.261Z,1008.06
2017-06-19T06:31:52.714Z,1008.04
2017-06-19T06:32:33.244Z,1008.07
2017-06-19T06:33:13.770Z,1008.05
2017-06-19T06:33:54.380Z,1008.09
2017-06-19T06:34:34.859Z,1008.05
2017-06-19T06:35:15.541Z,1008.11
2017-06-19T06:35:56.025Z,1008.13
2017-06-19T06:36:36.478Z,1008.07
2017-06-19T06:37:16.943Z,1008.1
2017-06-19T06:37:57.523Z,1008.08
2017-06-19T06:38:38.197Z,1008.1
2017-06-19T06:39:18.578Z,1008.1
2017-06-19T06:39:59.122Z,1008.08
2017-06-19T06:40:39.594Z,1008.12
2017-06-19T06:41:21.560Z,1008.07
2017-06-19T06:42:02.096Z,1008.05
2017-06-19T06:42:42.568Z,1008.08
2017-06-19T06:43:23.052Z,1008.06
2017-06-19T06:44:03.775Z,1008.03
2017-06-19T06:44:44.747Z,1008.03
2017-06-19T06:45:25.813Z,1008.02
2017-06-19T06:46:06.868Z,1008.03
2017-06-19T06:46:48.324Z,1008.05
2017-06-19T06:47:31.590Z,1008
2017-06-19T06:48:12.326Z,1008.03
2017-06-19T06:48:52.856Z,1008
2017-06-19T06:49:33.334Z,1008.04
2017-06-19T06:50:13.956Z,1008.06
2017-06-19T06:50:54.443Z,1007.99
2017-06-19T06:51:34.957Z,1008.01
2017-06-19T06:52:15.544Z,1008.02
2017-06-19T06:52:56.009Z,1008.05
2017-06-19T06:53:36.554Z,1008.05
2017-06-19T06:54:17.047Z,1008.01
2017-06-19T06:54:57.550Z,1008.02
2017-06-19T06:55:37.997Z,1007.97
2017-06-19T06:56:18.524Z,1007.99
2017-06-19T06:56:59.036Z,1007.98
2017-06-19T06:57:39.593Z,1007.98
2017-06-19T06:58:20.146Z,1007.95
2017-06-19T06:59:00.607Z,1007.95
2017-06-19T06:59:41.151Z,1007.95
2017-06-19T07:00:21.591Z,1007.92
2017-06-19T07:01:02.135Z,1007.93
2017-06-19T07:01:42.628Z,1007.98
2017-06-19T07:02:23.161Z,1007.93
2017-06-19T07:03:03.657Z,1007.94
2017-06-19T07:03:44.241Z,1007.91
2017-06-19T07:04:24.879Z,1007.93
2017-06-19T07:05:05.404Z,1007.89
2017-06-19T07:05:45.946Z,1007.93
2017-06-19T07:06:26.434Z,1007.87
2017-06-19T07:07:06.908Z,1007.91
2017-06-19T07:07:47.446Z,1007.85
2017-06-19T07:08:27.942Z,1007.89
2017-06-19T07:09:08.457Z,1007.9
2017-06-19T07:09:49.036Z,1007.9
2017-06-19T07:10:29.688Z,1007.84
2017-06-19T07:11:10.246Z,1007.77
2017-06-19T07:11:50.801Z,1007.83
2017-06-19T07:12:31.390Z,1007.87
2017-06-19T07:13:11.860Z,1007.81
2017-06-19T07:13:52.371Z,1007.84
2017-06-19T07:14:32.915Z,1007.9
2017-06-19T07:15:13.400Z,1007.83
2017-06-19T07:15:53.904Z,1007.83
2017-06-19T07:16:34.414Z,1007.79
2017-06-19T07:17:15.905Z,1007.8
2017-06-19T07:17:56.350Z,1007.86
2017-06-19T07:18:36.935Z,1007.84
2017-06-19T07:19:17.488Z,1007.84
2017-06-19T07:19:58.014Z,1007.84
2017-06-19T07:20:38.507Z,1007.82
2017-06-19T07:21:19.001Z,1007.84
2017-06-19T07:21:59.529Z,1007.83
2017-06-19T07:22:40.076Z,1007.86
2017-06-19T07:23:20.639Z,1007.88
2017-06-19T07:24:01.194Z,1007.85
2017-06-19T07:24:41.716Z,1007.84
2017-06-19T07:25:22.237Z,1007.85
2017-06-19T07:26:02.743Z,1007.88
2017-06-19T07:26:43.197Z,1007.86
2017-06-19T07:27:23.831Z,1007.87
2017-06-19T07:28:04.324Z,1007.88
2017-06-19T07:28:44.849Z,1007.9
2017-06-19T07:29:25.395Z,1007.9
2017-06-19T07:30:05.948Z,1007.86
2017-06-19T07:30:46.426Z,1007.81
2017-06-19T07:31:26.991Z,1007.79
2017-06-19T07:32:07.543Z,1007.79
2017-06-19T07:32:48.284Z,1007.78
2017-06-19T07:33:28.737Z,1007.84
2017-06-19T07:34:09.255Z,1007.79
2017-06-19T07:34:49.753Z,1007.81
2017-06-19T07:35:30.246Z,1007.79
2017-06-19T07:36:10.736Z,1007.77
2017-06-19T07:36:51.229Z,1007.77
2017-06-19T07:37:31.787Z,1007.84
2017-06-19T07:38:12.240Z,1007.78
2017-06-19T07:38:52.751Z,1007.78
2017-06-19T07:39:33.290Z,1007.76
2017-06-19T07:40:13.787Z,1007.75
2017-06-19T07:40:54.305Z,1007.76
2017-06-19T07:41:34.800Z,1007.74
2017-06-19T07:42:15.363Z,1007.75
2017-06-19T07:42:55.837Z,1007.79
2017-06-19T07:43:36.399Z,1007.82
2017-06-19T07:44:16.957Z,1007.75
2017-06-19T07:44:57.444Z,1007.74
2017-06-19T07:45:37.922Z,1007.76
2017-06-19T07:46:18.465Z,1007.74
2017-06-19T07:46:58.938Z,1007.77
2017-06-19T07:47:39.393Z,1007.72
2017-06-19T07:48:20.049Z,1007.73
2017-06-19T07:49:00.600Z,1007.69
2017-06-19T07:49:41.069Z,1007.68
2017-06-19T07:50:21.588Z,1007.68
2017-06-19T07:51:02.100Z,1007.68
2017-06-19T07:51:42.605Z,1007.69
2017-06-19T07:52:23.202Z,1007.73
2017-06-19T07:53:03.651Z,1007.7
2017-06-19T07:53:44.188Z,1007.69
2017-06-19T07:54:24.813Z,1007.67
2017-06-19T07:55:05.278Z,1007.69
2017-06-19T07:55:45.826Z,1007.68
2017-06-19T07:56:26.376Z,1007.66
2017-06-19T07:57:06.952Z,1007.68
2017-06-19T07:57:47.638Z,1007.67
2017-06-19T07:58:28.112Z,1007.68
2017-06-19T07:59:11.670Z,1007.72
2017-06-19T07:59:52.407Z,1007.66
2017-06-19T08:00:32.927Z,1007.64
2017-06-19T08:01:13.391Z,1007.63
2017-06-19T08:01:53.931Z,1007.68
2017-06-19T08:02:34.399Z,1007.67
2017-06-19T08:03:14.953Z,1007.6
2017-06-19T08:03:55.428Z,1007.56
2017-06-19T08:04:36.005Z,1007.56
2017-06-19T08:05:16.569Z,1007.56
2017-06-19T08:05:57.219Z,1007.61
2017-06-19T08:06:37.730Z,1007.57
2017-06-19T08:07:18.321Z,1007.52
2017-06-19T08:07:58.832Z,1007.55
2017-06-19T08:08:39.318Z,1007.54
2017-06-19T08:09:19.975Z,1007.54
2017-06-19T08:10:00.434Z,1007.49
2017-06-19T08:10:41.769Z,1007.55
2017-06-19T08:11:22.253Z,1007.52
2017-06-19T08:12:02.791Z,1007.49
2017-06-19T08:12:43.252Z,1007.48
2017-06-19T08:13:23.724Z,1007.5
2017-06-19T08:14:04.387Z,1007.51
2017-06-19T08:14:44.846Z,1007.47
2017-06-19T08:15:25.468Z,1007.44
2017-06-19T08:16:05.919Z,1007.47
2017-06-19T08:16:46.422Z,1007.47
2017-06-19T08:17:26.923Z,1007.54
2017-06-19T08:18:07.579Z,1007.57
2017-06-19T08:18:48.140Z,1007.51
2017-06-19T08:19:28.672Z,1007.53
2017-06-19T08:20:09.141Z,1007.48